createdAt,value
2019-03-08T00:02:16.404Z,11.70
2019-03-08T00:04:48.959Z,11.64
2019-03-08T00:07:21.355Z,11.57
2019-03-08T00:09:52.659Z,11.50
2019-03-08T00:12:24.780Z,11.42
2019-03-08T00:14:57.112Z,11.40
2019-03-08T00:17:28.410Z,11.38
2019-03-08T00:20:00.601Z,11.33
2019-03-08T00:22:33.361Z,11.28
2019-03-08T00:25:04.550Z,11.17
2019-03-08T00:27:36.861Z,11.08
2019-03-08T00:30:09.650Z,10.98
2019-03-08T00:32:42.098Z,10.90
2019-03-08T00:35:14.438Z,10.81
2019-03-08T00:37:45.699Z,10.69
2019-03-08T00:40:17.859Z,10.58
2019-03-08T00:42:50.061Z,10.48
2019-03-08T00:45:24.330Z,10.42
2019-03-08T00:47:56.798Z,10.36
2019-03-08T00:50:28.089Z,10.27
2019-03-08T00:53:00.232Z,10.26
2019-03-08T00:55:32.647Z,10.23
2019-03-08T00:58:05.129Z,10.20
2019-03-08T01:00:37.828Z,10.18
2019-03-08T01:03:10.120Z,10.13
2019-03-08T01:05:41.498Z,10.05
2019-03-08T01:08:13.872Z,9.95
2019-03-08T01:10:45.069Z,9.91
2019-03-08T01:13:17.187Z,9.84
2019-03-08T01:15:48.522Z,9.83
2019-03-08T01:18:20.780Z,9.75
2019-03-08T01:20:53.228Z,9.72
2019-03-08T01:23:25.855Z,9.69
2019-03-08T01:25:57.060Z,9.66
2019-03-08T01:28:29.051Z,9.64
2019-03-08T01:31:00.409Z,9.64
2019-03-08T01:33:32.498Z,9.58
2019-03-08T01:36:06.452Z,9.55
2019-03-08T01:38:37.589Z,9.46
2019-03-08T01:41:09.737Z,9.36
2019-03-08T01:43:42.049Z,9.25
2019-03-08T01:46:13.370Z,9.20
2019-03-08T01:48:46.880Z,9.08
2019-03-08T01:51:19.268Z,9.07
2019-03-08T01:53:51.598Z,9.03
2019-03-08T01:56:24.070Z,9.05
2019-03-08T01:58:56.370Z,9.00
2019-03-08T02:01:27.638Z,8.85
2019-03-08T02:03:59.591Z,8.79
2019-03-08T02:06:32.731Z,8.72
2019-03-08T02:09:06.930Z,8.67
2019-03-08T02:11:40.811Z,8.60
2019-03-08T02:14:11.969Z,8.57
2019-03-08T02:16:44.410Z,8.60
2019-03-08T02:19:16.691Z,8.57
2019-03-08T02:21:49.220Z,8.64
2019-03-08T02:24:21.450Z,8.58
2019-03-08T02:26:52.819Z,8.62
2019-03-08T02:29:24.810Z,8.56
2019-03-08T02:31:55.889Z,8.55
2019-03-08T02:34:28.940Z,8.54
2019-03-08T02:37:01.273Z,8.55
2019-03-08T02:39:34.700Z,8.57
2019-03-08T02:42:07.070Z,8.61
2019-03-08T02:44:39.423Z,8.58
2019-03-08T02:47:11.874Z,8.60
2019-03-08T02:49:45.414Z,8.56
2019-03-08T02:52:18.950Z,8.53
2019-03-08T02:54:51.540Z,8.55
2019-03-08T02:57:22.839Z,8.50
2019-03-08T02:59:55.425Z,8.47
2019-03-08T03:02:27.739Z,8.41
2019-03-08T03:05:00.391Z,8.35
2019-03-08T03:07:32.860Z,8.36
2019-03-08T03:10:05.570Z,8.26
2019-03-08T03:12:37.901Z,8.15
2019-03-08T03:15:10.454Z,8.05
2019-03-08T03:17:42.861Z,8.01
2019-03-08T03:20:16.540Z,8.02
2019-03-08T03:22:49.980Z,8.03
2019-03-08T03:25:22.390Z,8.09
2019-03-08T03:27:54.731Z,8.09
2019-03-08T03:30:27.062Z,8.04
2019-03-08T03:32:59.482Z,8.01
2019-03-08T03:35:32.000Z,7.95
2019-03-08T03:38:03.998Z,7.91
2019-03-08T03:40:36.400Z,7.82
2019-03-08T03:43:08.760Z,7.73
2019-03-08T03:45:41.014Z,7.73
2019-03-08T03:48:12.198Z,7.69
2019-03-08T03:50:44.338Z,7.61
2019-03-08T03:53:16.690Z,7.62
2019-03-08T03:55:50.470Z,7.62
2019-03-08T03:58:23.110Z,7.63
2019-03-08T04:00:55.719Z,7.74
2019-03-08T04:03:28.133Z,7.67
2019-03-08T04:06:00.430Z,7.64
2019-03-08T04:08:31.838Z,7.70
2019-03-08T04:11:03.900Z,7.78
2019-03-08T04:13:35.189Z,7.84
2019-03-08T04:16:07.225Z,7.86
2019-03-08T04:18:38.438Z,7.90
2019-03-08T04:21:10.590Z,7.87
2019-03-08T04:23:42.188Z,7.92
2019-03-08T04:26:14.339Z,7.92
2019-03-08T04:28:46.737Z,7.91
2019-03-08T04:31:19.063Z,7.90
2019-03-08T04:33:51.380Z,7.88
2019-03-08T04:36:22.499Z,7.89
2019-03-08T04:38:54.681Z,7.87
2019-03-08T04:41:27.410Z,7.89
2019-03-08T04:43:59.750Z,7.91
2019-03-08T04:46:31.920Z,7.90
2019-03-08T04:49:04.220Z,7.90
2019-03-08T04:51:36.570Z,7.83
2019-03-08T04:54:08.904Z,7.82
2019-03-08T04:56:41.603Z,7.80
2019-03-08T04:59:13.081Z,7.75
2019-03-08T05:01:45.252Z,7.68
2019-03-08T05:04:18.622Z,7.65
2019-03-08T05:06:50.870Z,7.67
2019-03-08T05:09:22.159Z,7.65
2019-03-08T05:11:54.240Z,7.68
2019-03-08T05:14:25.336Z,7.71
2019-03-08T05:16:57.560Z,7.64
2019-03-08T05:19:30.052Z,7.72
2019-03-08T05:22:02.369Z,7.81
2019-03-08T05:24:33.768Z,7.79
2019-03-08T05:27:05.922Z,7.81
2019-03-08T05:29:38.330Z,7.83
2019-03-08T05:32:10.860Z,7.89
2019-03-08T05:34:42.148Z,7.93
2019-03-08T05:37:14.149Z,7.98
2019-03-08T05:39:45.488Z,7.96
2019-03-08T05:42:17.559Z,7.96
2019-03-08T05:44:48.899Z,8.00
2019-03-08T05:47:20.962Z,8.01
2019-03-08T05:49:52.148Z,7.97
2019-03-08T05:52:24.452Z,7.86
2019-03-08T05:54:57.430Z,7.83
2019-03-08T05:57:29.800Z,7.79
2019-03-08T06:00:02.290Z,7.72
2019-03-08T06:02:35.021Z,7.69
2019-03-08T06:05:08.180Z,7.62
2019-03-08T06:07:40.700Z,7.57
2019-03-08T06:10:28.908Z,7.54
2019-03-08T06:13:01.120Z,7.42
2019-03-08T06:15:33.501Z,7.32
2019-03-08T06:18:06.390Z,7.26
2019-03-08T06:20:38.783Z,7.27
2019-03-08T06:23:15.950Z,7.34
2019-03-08T06:25:49.059Z,7.46
2019-03-08T06:28:35.015Z,7.70
2019-03-08T06:32:13.190Z,7.95
2019-03-08T06:34:46.340Z,8.19
2019-03-08T06:37:42.650Z,8.22
2019-03-08T06:40:41.580Z,8.22
2019-03-08T06:54:15.379Z,8.40
2019-03-08T06:57:17.320Z,8.60
2019-03-08T07:02:33.098Z,8.80
2019-03-08T07:16:49.599Z,9.93
2019-03-08T07:19:22.011Z,10.35
2019-03-08T07:22:00.741Z,10.63
2019-03-08T07:24:55.100Z,10.85
2019-03-08T07:27:44.570Z,11.09
2019-03-08T07:31:06.803Z,11.29
2019-03-08T07:34:11.498Z,11.55
2019-03-08T07:48:12.741Z,13.13
2019-03-08T07:57:47.091Z,13.10
2019-03-08T08:01:00.094Z,12.72
2019-03-08T08:03:49.830Z,12.62
2019-03-08T08:06:36.978Z,12.58
2019-03-08T08:09:39.280Z,12.67
2019-03-08T08:12:39.678Z,12.75
2019-03-08T08:15:34.020Z,12.87
2019-03-08T08:18:11.988Z,12.74
2019-03-08T08:21:10.628Z,12.83
2019-03-08T08:24:10.100Z,12.85
2019-03-08T08:27:16.698Z,12.75
2019-03-08T08:30:07.228Z,12.85
2019-03-08T08:32:53.461Z,12.89
2019-03-08T08:35:56.868Z,12.79
2019-03-08T08:38:49.970Z,12.74
2019-03-08T08:41:46.008Z,12.69
2019-03-08T08:44:38.110Z,12.71
2019-03-08T08:47:23.250Z,12.79
2019-03-08T08:50:15.310Z,12.87
2019-03-08T08:53:05.980Z,13.05
2019-03-08T08:56:05.960Z,13.03
2019-03-08T08:59:00.389Z,12.94
2019-03-08T09:01:47.850Z,12.88
2019-03-08T09:04:31.101Z,12.81
2019-03-08T09:07:21.293Z,12.64
2019-03-08T09:10:12.552Z,12.51
2019-03-08T09:13:08.897Z,12.78
2019-03-08T09:15:53.152Z,13.57
2019-03-08T09:18:45.041Z,13.94
2019-03-08T09:21:41.011Z,14.02
2019-03-08T09:24:19.851Z,14.21
2019-03-08T09:27:16.938Z,14.72
2019-03-08T09:30:17.164Z,15.13
2019-03-08T09:33:07.444Z,15.51
2019-03-08T09:36:14.340Z,15.29
2019-03-08T09:39:14.725Z,15.42
2019-03-08T09:42:15.468Z,16.02
2019-03-08T09:45:12.029Z,16.25
2019-03-08T09:47:59.033Z,16.77
2019-03-08T09:50:54.300Z,17.24
2019-03-08T09:53:32.350Z,17.82
2019-03-08T09:56:23.832Z,17.40
2019-03-08T09:59:15.110Z,17.58
2019-03-08T10:02:02.100Z,17.75
2019-03-08T10:04:53.250Z,18.05
2019-03-08T10:07:36.301Z,18.00
2019-03-08T10:10:34.090Z,17.75
2019-03-08T10:13:24.079Z,17.85
2019-03-08T10:16:04.042Z,17.74
2019-03-08T10:19:02.930Z,18.00
2019-03-08T10:21:56.440Z,18.34
2019-03-08T10:24:49.360Z,18.16
2019-03-08T10:27:37.854Z,18.25
2019-03-08T10:30:11.129Z,18.47
2019-03-08T10:33:10.773Z,18.64
2019-03-08T10:35:57.646Z,18.51
2019-03-08T10:38:55.671Z,18.57
2019-03-08T10:41:53.089Z,18.08
2019-03-08T10:44:37.695Z,18.33
2019-03-08T10:47:27.880Z,18.47
2019-03-08T10:50:21.805Z,18.71
2019-03-08T10:53:06.550Z,18.80
2019-03-08T10:55:57.959Z,18.33
2019-03-08T10:58:56.911Z,18.75
2019-03-08T11:01:57.372Z,18.37
2019-03-08T11:04:37.670Z,18.64
2019-03-08T11:07:27.483Z,18.79
2019-03-08T11:10:20.489Z,18.64
2019-03-08T11:13:23.437Z,19.02
2019-03-08T11:16:16.963Z,19.26
2019-03-08T11:19:08.995Z,19.20
2019-03-08T11:21:55.842Z,18.80
2019-03-08T11:24:43.560Z,18.46
2019-03-08T11:27:34.905Z,18.79
2019-03-08T11:30:29.780Z,18.97
2019-03-08T11:33:11.090Z,18.54
2019-03-08T11:36:05.220Z,18.58
2019-03-08T11:39:00.281Z,18.26
2019-03-08T11:42:00.102Z,17.37
2019-03-08T11:44:45.461Z,18.10
2019-03-08T11:47:45.110Z,18.38
2019-03-08T11:50:43.394Z,17.68
2019-03-08T11:53:36.980Z,16.84
2019-03-08T11:56:41.180Z,16.02
2019-03-08T11:59:38.940Z,15.78
2019-03-08T12:02:37.719Z,15.88
2019-03-08T12:05:28.039Z,16.96
2019-03-08T12:08:28.674Z,17.28
2019-03-08T12:11:31.088Z,18.04
2019-03-08T12:14:31.381Z,18.59
2019-03-08T12:17:33.939Z,19.32
2019-03-08T12:20:28.284Z,18.56
2019-03-08T12:23:28.710Z,18.65
2019-03-08T12:26:22.691Z,18.22
2019-03-08T12:29:21.061Z,17.36
2019-03-08T12:32:19.572Z,16.66
2019-03-08T12:35:06.850Z,16.22
2019-03-08T12:37:49.222Z,15.68
2019-03-08T12:40:55.331Z,15.60
2019-03-08T12:43:37.030Z,16.10
2019-03-08T12:46:26.740Z,17.77
2019-03-08T12:49:11.620Z,18.30
2019-03-08T12:52:05.890Z,18.77
2019-03-08T12:54:59.760Z,18.06
2019-03-08T12:57:52.040Z,17.07
2019-03-08T13:00:41.791Z,17.49
2019-03-08T13:03:37.901Z,17.94
2019-03-08T13:06:27.511Z,18.33
2019-03-08T13:09:17.270Z,19.01
2019-03-08T13:11:49.611Z,18.41
2019-03-08T13:14:22.191Z,17.92
2019-03-08T13:16:54.542Z,16.92
2019-03-08T13:19:26.960Z,16.31
2019-03-08T13:21:59.620Z,15.98
2019-03-08T13:24:32.020Z,15.71
2019-03-08T13:27:04.510Z,15.49
2019-03-08T13:29:37.023Z,15.54
2019-03-08T13:32:09.541Z,15.61
2019-03-08T13:34:41.982Z,15.34
2019-03-08T13:37:14.360Z,15.16
2019-03-08T13:39:46.795Z,15.09
2019-03-08T13:42:19.190Z,15.01
2019-03-08T13:44:51.851Z,14.80
2019-03-08T13:47:24.239Z,14.57
2019-03-08T13:49:57.739Z,14.46
2019-03-08T13:52:30.070Z,14.33
2019-03-08T13:55:02.558Z,14.28
2019-03-08T13:57:35.010Z,14.25
2019-03-08T14:00:07.029Z,14.24
2019-03-08T14:02:39.290Z,14.17
2019-03-08T14:05:12.001Z,14.09
2019-03-08T14:07:44.727Z,14.03
2019-03-08T14:10:17.470Z,13.93
2019-03-08T14:12:49.881Z,13.93
2019-03-08T14:15:22.430Z,13.90
2019-03-08T14:17:55.111Z,13.91
2019-03-08T14:20:28.131Z,13.93
2019-03-08T14:23:00.470Z,14.10
2019-03-08T14:25:32.529Z,14.18
2019-03-08T14:28:06.060Z,14.12
2019-03-08T14:30:45.640Z,14.02
2019-03-08T14:33:18.132Z,14.19
2019-03-08T14:35:50.491Z,14.09
2019-03-08T14:38:22.850Z,13.87
2019-03-08T14:41:19.978Z,13.71
2019-03-08T14:44:07.763Z,13.69
2019-03-08T14:46:56.512Z,13.63
2019-03-08T14:49:27.438Z,13.56
2019-03-08T14:51:59.418Z,13.79
2019-03-08T14:54:32.020Z,14.04
2019-03-08T14:57:04.530Z,14.10
2019-03-08T14:59:37.018Z,13.98
2019-03-08T15:02:13.639Z,13.82
2019-03-08T15:04:43.460Z,13.68
2019-03-08T15:07:14.919Z,13.54
2019-03-08T15:09:47.390Z,13.37
2019-03-08T15:12:20.414Z,13.30
2019-03-08T15:14:53.070Z,13.12
2019-03-08T15:17:25.572Z,12.87
2019-03-08T15:19:57.890Z,12.69
2019-03-08T15:22:29.369Z,12.53
2019-03-08T15:25:01.690Z,12.46
2019-03-08T15:27:34.558Z,12.40
2019-03-08T15:30:09.440Z,12.38
2019-03-08T15:32:42.030Z,12.36
2019-03-08T15:35:15.354Z,12.29
2019-03-08T15:37:48.391Z,12.25
2019-03-08T15:40:21.306Z,12.35
2019-03-08T15:42:53.724Z,12.56
2019-03-08T15:45:26.270Z,12.42
2019-03-08T15:47:58.720Z,12.34
2019-03-08T15:50:32.732Z,12.26
2019-03-08T15:53:05.081Z,12.17
2019-03-08T15:55:37.560Z,12.11
2019-03-08T15:58:09.921Z,12.04
2019-03-08T16:00:42.341Z,11.93
2019-03-08T16:03:14.650Z,11.84
2019-03-08T16:05:46.059Z,11.74
2019-03-08T16:08:18.543Z,11.63
2019-03-08T16:10:51.088Z,11.58
2019-03-08T16:13:23.642Z,11.55
2019-03-08T16:15:56.001Z,11.49
2019-03-08T16:18:28.590Z,11.42
2019-03-08T16:21:00.930Z,11.37
2019-03-08T16:23:33.365Z,11.33
2019-03-08T16:26:05.979Z,11.29
2019-03-08T16:28:38.578Z,11.25
2019-03-08T16:31:31.208Z,11.22
2019-03-08T16:34:03.170Z,11.19
2019-03-08T16:36:46.280Z,11.13
2019-03-08T16:39:48.404Z,11.08
2019-03-08T16:42:38.090Z,11.03
2019-03-08T16:45:32.055Z,11.01
2019-03-08T16:48:28.861Z,11.01
2019-03-08T16:51:06.969Z,10.97
2019-03-08T16:54:07.679Z,10.96
2019-03-08T16:56:59.253Z,10.96
2019-03-08T17:00:10.450Z,10.95
2019-03-08T17:03:01.662Z,10.96
2019-03-08T17:05:50.002Z,10.95
2019-03-08T17:08:44.010Z,10.94
2019-03-08T17:11:35.218Z,10.94
2019-03-08T17:14:27.311Z,10.95
2019-03-08T17:17:24.309Z,10.93
2019-03-08T17:20:15.568Z,10.91
2019-03-08T17:23:12.739Z,10.88
2019-03-08T17:25:52.560Z,10.87
2019-03-08T17:28:54.776Z,10.82
2019-03-08T17:31:35.278Z,10.74
2019-03-08T17:34:38.797Z,10.66
2019-03-08T17:37:26.520Z,10.59
2019-03-08T17:40:14.520Z,10.57
2019-03-08T17:43:14.868Z,10.55
2019-03-08T17:45:58.735Z,10.54
2019-03-08T17:48:59.331Z,10.49
2019-03-08T17:51:47.839Z,10.46
2019-03-08T17:54:35.450Z,10.44
2019-03-08T17:57:25.328Z,10.40
2019-03-08T18:00:11.738Z,10.42
2019-03-08T18:03:02.963Z,10.39
2019-03-08T18:06:02.950Z,10.43
2019-03-08T18:08:54.351Z,10.45
2019-03-08T18:11:45.621Z,10.44
2019-03-08T18:14:55.128Z,10.46
2019-03-08T18:17:55.668Z,10.47
2019-03-08T18:20:40.883Z,10.49
2019-03-08T18:23:24.862Z,10.47
2019-03-08T18:26:25.290Z,10.48
2019-03-08T18:29:16.977Z,10.48
2019-03-08T18:32:01.290Z,10.47
2019-03-08T18:35:02.532Z,10.48
2019-03-08T18:38:10.120Z,10.49
2019-03-08T18:41:07.472Z,10.52
2019-03-08T18:44:05.968Z,10.55
2019-03-08T18:46:56.649Z,10.53
2019-03-08T18:49:51.215Z,10.53
2019-03-08T18:52:50.668Z,10.52
2019-03-08T18:55:41.839Z,10.52
2019-03-08T18:58:30.114Z,10.52
2019-03-08T19:01:21.378Z,10.51
2019-03-08T19:04:08.841Z,10.54
2019-03-08T19:07:07.138Z,10.56
2019-03-08T19:10:46.251Z,10.54
2019-03-08T19:13:45.961Z,10.55
2019-03-08T19:16:37.170Z,10.59
2019-03-08T19:19:31.360Z,10.62
2019-03-08T19:22:12.732Z,10.64
2019-03-08T19:25:06.751Z,10.65
2019-03-08T19:27:51.311Z,10.65
2019-03-08T19:30:38.310Z,10.61
2019-03-08T19:33:35.600Z,10.55
2019-03-08T19:36:19.695Z,10.48
2019-03-08T19:39:23.068Z,10.38
2019-03-08T19:42:12.980Z,10.32
2019-03-08T19:44:53.640Z,10.23
2019-03-08T19:47:53.850Z,10.14
2019-03-08T19:50:45.390Z,10.04
2019-03-08T19:53:37.401Z,9.99
2019-03-08T19:56:31.549Z,9.92
2019-03-08T19:59:21.472Z,9.82
2019-03-08T20:02:21.850Z,9.72
2019-03-08T20:05:24.269Z,9.60
2019-03-08T20:08:15.163Z,9.25
2019-03-08T20:11:06.370Z,9.25
2019-03-08T20:14:03.834Z,9.15
2019-03-08T20:16:59.425Z,9.05
2019-03-08T20:19:48.378Z,8.97
2019-03-08T20:22:42.717Z,8.88
2019-03-08T20:25:43.228Z,8.80
2019-03-08T20:28:37.548Z,8.70
2019-03-08T20:31:29.990Z,8.63
2019-03-08T20:34:09.511Z,8.56
2019-03-08T20:37:06.448Z,8.52
2019-03-08T20:40:07.875Z,8.47
2019-03-08T20:42:51.438Z,8.45
2019-03-08T20:45:42.677Z,8.46
2019-03-08T20:48:16.596Z,8.48
2019-03-08T20:50:49.122Z,8.48
2019-03-08T20:53:21.646Z,8.48
2019-03-08T20:55:54.160Z,8.46
2019-03-08T20:58:26.738Z,8.44
2019-03-08T21:00:59.640Z,8.41
2019-03-08T21:03:32.280Z,8.37
2019-03-08T21:06:05.748Z,8.34
2019-03-08T21:08:38.232Z,8.32
2019-03-08T21:11:10.740Z,8.31
2019-03-08T21:13:44.570Z,8.27
2019-03-08T21:16:19.490Z,8.23
2019-03-08T21:18:52.420Z,8.17
2019-03-08T21:21:24.953Z,8.07
2019-03-08T21:23:57.322Z,8.04
2019-03-08T21:26:31.059Z,7.96
2019-03-08T21:29:03.858Z,7.87
2019-03-08T21:31:36.499Z,7.81
2019-03-08T21:34:08.962Z,7.75
2019-03-08T21:36:41.949Z,7.72
2019-03-08T21:39:14.657Z,7.68
2019-03-08T21:41:47.475Z,7.66
2019-03-08T21:44:20.793Z,7.61
2019-03-08T21:46:53.626Z,7.58
2019-03-08T21:49:26.020Z,7.50
2019-03-08T21:51:59.598Z,7.45
2019-03-08T21:54:31.858Z,7.42
2019-03-08T21:57:05.554Z,7.35
2019-03-08T21:59:38.112Z,7.31
2019-03-08T22:02:11.628Z,7.28
2019-03-08T22:04:47.949Z,7.23
2019-03-08T22:07:20.759Z,7.17
2019-03-08T22:10:15.775Z,7.12
2019-03-08T22:12:48.280Z,7.08
2019-03-08T22:15:20.670Z,7.04
2019-03-08T22:17:53.080Z,6.98
2019-03-08T22:20:25.439Z,6.89
2019-03-08T22:22:57.778Z,6.82
2019-03-08T22:25:30.289Z,6.77
2019-03-08T22:28:03.120Z,6.73
2019-03-08T22:30:37.094Z,6.67
2019-03-08T22:33:09.509Z,6.57
2019-03-08T22:35:42.390Z,6.45
2019-03-08T22:38:17.168Z,6.36
2019-03-08T22:40:54.482Z,6.29
2019-03-08T22:43:27.027Z,6.24
2019-03-08T22:45:59.408Z,6.21
2019-03-08T22:48:31.868Z,6.21
2019-03-08T22:51:04.358Z,6.24
2019-03-08T22:53:36.780Z,6.25
2019-03-08T22:56:10.038Z,6.30
2019-03-08T22:58:42.475Z,6.31
2019-03-08T23:01:17.291Z,6.28
2019-03-08T23:03:50.849Z,6.27
2019-03-08T23:06:24.400Z,6.26
2019-03-08T23:08:56.958Z,6.26
2019-03-08T23:11:29.380Z,6.25
2019-03-08T23:14:01.749Z,6.29
2019-03-08T23:16:34.631Z,6.32
2019-03-08T23:19:07.175Z,6.36
2019-03-08T23:21:39.658Z,6.35
2019-03-08T23:24:11.900Z,6.34
2019-03-08T23:27:07.209Z,6.32
2019-03-08T23:29:46.658Z,6.24
2019-03-08T23:32:30.520Z,6.18
2019-03-08T23:35:15.864Z,6.09
2019-03-08T23:37:48.268Z,6.03
2019-03-08T23:40:20.710Z,5.95
2019-03-08T23:42:53.100Z,5.88
2019-03-08T23:45:25.578Z,5.83
2019-03-08T23:48:04.661Z,5.78
2019-03-08T23:50:34.919Z,5.73
2019-03-08T23:53:07.358Z,5.65
2019-03-08T23:55:47.780Z,5.59
2019-03-08T23:58:21.128Z,5.53
